sensor_id;sensor_type;location;lat;lon;timestamp;pressure;altitude;pressure_sealevel;temperature;humidity
19520;BME280;9904;52.246;20.898;2024-03-25T00:01:57;98629.81;;;4.24;87.10
19520;BME280;9904;52.246;20.898;2024-03-25T00:04:23;98624.38;;;4.16;87.21
19520;BME280;9904;52.246;20.898;2024-03-25T00:06:49;98632.16;;;4.27;87.06
19520;BME280;9904;52.246;20.898;2024-03-25T00:09:15;98632.47;;;4.24;87.34
19520;BME280;9904;52.246;20.898;2024-03-25T00:11:41;98637.13;;;4.22;87.64
19520;BME280;9904;52.246;20.898;2024-03-25T00:14:07;98638.28;;;4.19;87.74
19520;BME280;9904;52.246;20.898;2024-03-25T00:16:34;98630.41;;;4.18;87.74
19520;BME280;9904;52.246;20.898;2024-03-25T00:19:00;98643.72;;;4.09;88.34
19520;BME280;9904;52.246;20.898;2024-03-25T00:21:26;98637.91;;;4.14;88.55
19520;BME280;9904;52.246;20.898;2024-03-25T00:23:52;98644.63;;;4.18;88.29
19520;BME280;9904;52.246;20.898;2024-03-25T00:26:17;98637.06;;;4.13;88.19
19520;BME280;9904;52.246;20.898;2024-03-25T00:28:43;98632.38;;;3.97;88.77
19520;BME280;9904;52.246;20.898;2024-03-25T00:31:09;98628.53;;;4.00;88.44
19520;BME280;9904;52.246;20.898;2024-03-25T00:33:35;98632.75;;;4.03;88.38
19520;BME280;9904;52.246;20.898;2024-03-25T00:36:00;98621.22;;;4.02;88.68
19520;BME280;9904;52.246;20.898;2024-03-25T00:38:26;98626.84;;;3.99;88.65
19520;BME280;9904;52.246;20.898;2024-03-25T00:40:52;98621.66;;;3.97;88.60
19520;BME280;9904;52.246;20.898;2024-03-25T00:43:18;98622.56;;;3.88;89.25
19520;BME280;9904;52.246;20.898;2024-03-25T00:45:45;98621.81;;;3.96;89.46
19520;BME280;9904;52.246;20.898;2024-03-25T00:48:11;98627.84;;;3.98;88.57
19520;BME280;9904;52.246;20.898;2024-03-25T00:50:37;98622.88;;;3.85;89.22
19520;BME280;9904;52.246;20.898;2024-03-25T00:53:03;98618.28;;;3.95;89.44
19520;BME280;9904;52.246;20.898;2024-03-25T00:55:28;98606.66;;;3.87;89.65
19520;BME280;9904;52.246;20.898;2024-03-25T00:57:54;98612.19;;;3.75;90.49
19520;BME280;9904;52.246;20.898;2024-03-25T01:00:20;98612.16;;;3.85;90.52
19520;BME280;9904;52.246;20.898;2024-03-25T01:02:46;98609.59;;;3.84;90.35
19520;BME280;9904;52.246;20.898;2024-03-25T01:05:12;98618.75;;;3.63;91.70
19520;BME280;9904;52.246;20.898;2024-03-25T01:07:38;98615.19;;;3.72;91.50
19520;BME280;9904;52.246;20.898;2024-03-25T01:10:04;98612.09;;;3.67;92.11
19520;BME280;9904;52.246;20.898;2024-03-25T01:12:31;98603.88;;;3.78;91.00
19520;BME280;9904;52.246;20.898;2024-03-25T01:14:57;98596.53;;;3.80;91.03
19520;BME280;9904;52.246;20.898;2024-03-25T01:17:23;98600.56;;;3.67;92.00
19520;BME280;9904;52.246;20.898;2024-03-25T01:19:48;98595.47;;;3.63;92.08
19520;BME280;9904;52.246;20.898;2024-03-25T01:22:14;98599.94;;;3.73;92.18
19520;BME280;9904;52.246;20.898;2024-03-25T01:24:39;98590.66;;;3.77;92.07
19520;BME280;9904;52.246;20.898;2024-03-25T01:27:05;98594.38;;;3.66;92.10
19520;BME280;9904;52.246;20.898;2024-03-25T01:29:31;98590.72;;;3.57;93.12
19520;BME280;9904;52.246;20.898;2024-03-25T01:31:58;98593.81;;;3.62;92.92
19520;BME280;9904;52.246;20.898;2024-03-25T01:34:25;98598.25;;;3.72;92.63
19520;BME280;9904;52.246;20.898;2024-03-25T01:36:51;98598.13;;;3.73;92.83
19520;BME280;9904;52.246;20.898;2024-03-25T01:39:18;98592.31;;;3.78;92.35
19520;BME280;9904;52.246;20.898;2024-03-25T01:41:43;98600.34;;;3.78;91.96
19520;BME280;9904;52.246;20.898;2024-03-25T01:44:09;98595.63;;;3.62;93.50
19520;BME280;9904;52.246;20.898;2024-03-25T01:46:35;98595.31;;;3.75;93.25
19520;BME280;9904;52.246;20.898;2024-03-25T01:49:01;98597.03;;;3.66;93.55
19520;BME280;9904;52.246;20.898;2024-03-25T01:51:27;98597.97;;;3.47;94.66
19520;BME280;9904;52.246;20.898;2024-03-25T01:53:54;98591.94;;;3.45;94.87
19520;BME280;9904;52.246;20.898;2024-03-25T01:56:21;98600.44;;;3.30;95.76
19520;BME280;9904;52.246;20.898;2024-03-25T01:58:47;98593.97;;;3.23;96.68
19520;BME280;9904;52.246;20.898;2024-03-25T02:01:13;98597.44;;;3.33;96.04
19520;BME280;9904;52.246;20.898;2024-03-25T02:03:43;98594.38;;;3.28;96.04
19520;BME280;9904;52.246;20.898;2024-03-25T02:06:12;98600.53;;;3.39;95.69
19520;BME280;9904;52.246;20.898;2024-03-25T02:08:40;98590.41;;;3.32;96.16
19520;BME280;9904;52.246;20.898;2024-03-25T02:11:06;98586.91;;;3.32;96.07
19520;BME280;9904;52.246;20.898;2024-03-25T02:13:32;98589.69;;;3.40;95.47
19520;BME280;9904;52.246;20.898;2024-03-25T02:15:58;98585.72;;;3.07;96.28
19520;BME280;9904;52.246;20.898;2024-03-25T02:18:23;98582.47;;;3.13;97.08
19520;BME280;9904;52.246;20.898;2024-03-25T02:20:49;98585.81;;;3.25;96.96
19520;BME280;9904;52.246;20.898;2024-03-25T02:23:15;98589.53;;;3.04;97.28
19520;BME280;9904;52.246;20.898;2024-03-25T02:25:42;98593.44;;;3.10;97.38
19520;BME280;9904;52.246;20.898;2024-03-25T02:28:08;98589.06;;;3.19;96.95
19520;BME280;9904;52.246;20.898;2024-03-25T02:30:34;98592.72;;;3.17;96.86
19520;BME280;9904;52.246;20.898;2024-03-25T02:32:59;98592.19;;;3.14;97.22
19520;BME280;9904;52.246;20.898;2024-03-25T02:35:26;98596.38;;;3.16;97.13
19520;BME280;9904;52.246;20.898;2024-03-25T02:37:52;98597.53;;;3.14;97.09
19520;BME280;9904;52.246;20.898;2024-03-25T02:40:19;98597.59;;;2.94;98.01
19520;BME280;9904;52.246;20.898;2024-03-25T02:42:46;98594.22;;;2.92;98.38
19520;BME280;9904;52.246;20.898;2024-03-25T02:45:12;98594.72;;;3.06;98.18
19520;BME280;9904;52.246;20.898;2024-03-25T02:47:37;98594.22;;;2.92;98.47
19520;BME280;9904;52.246;20.898;2024-03-25T02:50:03;98592.50;;;3.01;98.10
19520;BME280;9904;52.246;20.898;2024-03-25T02:52:29;98590.38;;;3.05;97.79
19520;BME280;9904;52.246;20.898;2024-03-25T02:54:55;98597.94;;;3.09;97.51
19520;BME280;9904;52.246;20.898;2024-03-25T02:57:21;98604.84;;;3.12;97.75
19520;BME280;9904;52.246;20.898;2024-03-25T02:59:47;98606.13;;;3.08;97.43
19520;BME280;9904;52.246;20.898;2024-03-25T03:02:12;98603.59;;;2.96;98.11
19520;BME280;9904;52.246;20.898;2024-03-25T03:04:38;98596.44;;;2.97;98.28
19520;BME280;9904;52.246;20.898;2024-03-25T03:07:03;98596.25;;;3.08;97.68
19520;BME280;9904;52.246;20.898;2024-03-25T03:09:29;98598.34;;;3.14;97.88
19520;BME280;9904;52.246;20.898;2024-03-25T03:11:55;98598.81;;;3.00;97.74
19520;BME280;9904;52.246;20.898;2024-03-25T03:14:20;98608.66;;;3.09;97.78
19520;BME280;9904;52.246;20.898;2024-03-25T03:16:46;98607.97;;;2.97;97.98
19520;BME280;9904;52.246;20.898;2024-03-25T03:19:12;98619.94;;;3.03;97.82
19520;BME280;9904;52.246;20.898;2024-03-25T03:21:37;98613.59;;;3.04;97.74
19520;BME280;9904;52.246;20.898;2024-03-25T03:24:04;98605.56;;;3.04;97.95
19520;BME280;9904;52.246;20.898;2024-03-25T03:26:30;98614.19;;;2.98;98.17
19520;BME280;9904;52.246;20.898;2024-03-25T03:28:56;98609.38;;;3.01;98.20
19520;BME280;9904;52.246;20.898;2024-03-25T03:31:22;98614.44;;;2.95;98.27
19520;BME280;9904;52.246;20.898;2024-03-25T03:33:48;98613.38;;;2.78;98.53
19520;BME280;9904;52.246;20.898;2024-03-25T03:36:15;98621.06;;;2.81;99.48
19520;BME280;9904;52.246;20.898;2024-03-25T03:38:42;98625.00;;;2.96;99.04
19520;BME280;9904;52.246;20.898;2024-03-25T03:41:08;98617.28;;;2.93;98.99
19520;BME280;9904;52.246;20.898;2024-03-25T03:43:34;98630.78;;;3.01;98.26
19520;BME280;9904;52.246;20.898;2024-03-25T03:45:59;98631.47;;;2.94;98.56
19520;BME280;9904;52.246;20.898;2024-03-25T03:48:25;98635.13;;;2.93;99.08
19520;BME280;9904;52.246;20.898;2024-03-25T03:50:51;98635.28;;;2.81;99.49
19520;BME280;9904;52.246;20.898;2024-03-25T03:53:17;98632.75;;;2.80;99.84
19520;BME280;9904;52.246;20.898;2024-03-25T03:55:55;98633.03;;;2.87;99.74
19520;BME280;9904;52.246;20.898;2024-03-25T03:58:22;98649.19;;;2.95;99.00
19520;BME280;9904;52.246;20.898;2024-03-25T04:00:48;98643.72;;;2.87;99.30
19520;BME280;9904;52.246;20.898;2024-03-25T04:03:13;98643.19;;;2.73;99.87
19520;BME280;9904;52.246;20.898;2024-03-25T04:05:39;98643.19;;;2.63;100.00
19520;BME280;9904;52.246;20.898;2024-03-25T04:08:05;98645.72;;;2.55;100.00
19520;BME280;9904;52.246;20.898;2024-03-25T04:10:31;98648.09;;;2.48;100.00
19520;BME280;9904;52.246;20.898;2024-03-25T04:12:56;98643.59;;;2.59;100.00
19520;BME280;9904;52.246;20.898;2024-03-25T04:15:22;98645.56;;;2.57;100.00
19520;BME280;9904;52.246;20.898;2024-03-25T04:17:48;98642.78;;;2.68;100.00
19520;BME280;9904;52.246;20.898;2024-03-25T04:20:16;98638.38;;;2.77;100.00
19520;BME280;9904;52.246;20.898;2024-03-25T04:22:46;98645.97;;;2.62;100.00
19520;BME280;9904;52.246;20.898;2024-03-25T04:25:13;98635.31;;;2.52;100.00
19520;BME280;9904;52.246;20.898;2024-03-25T04:27:40;98644.59;;;2.48;100.00
19520;BME280;9904;52.246;20.898;2024-03-25T04:30:07;98645.97;;;2.62;100.00
19520;BME280;9904;52.246;20.898;2024-03-25T04:32:34;98647.09;;;2.59;100.00
19520;BME280;9904;52.246;20.898;2024-03-25T04:35:01;98647.66;;;2.63;100.00
19520;BME280;9904;52.246;20.898;2024-03-25T04:37:27;98641.75;;;2.59;100.00
19520;BME280;9904;52.246;20.898;2024-03-25T04:39:53;98647.25;;;2.67;100.00
19520;BME280;9904;52.246;20.898;2024-03-25T04:42:19;98641.19;;;2.65;100.00
19520;BME280;9904;52.246;20.898;2024-03-25T04:44:45;98642.34;;;2.53;100.00
19520;BME280;9904;52.246;20.898;2024-03-25T04:47:11;98645.41;;;2.48;100.00
19520;BME280;9904;52.246;20.898;2024-03-25T04:49:37;98651.31;;;2.52;100.00
19520;BME280;9904;52.246;20.898;2024-03-25T04:52:04;98649.50;;;2.62;100.00
19520;BME280;9904;52.246;20.898;2024-03-25T04:54:30;98648.38;;;2.65;100.00
19520;BME280;9904;52.246;20.898;2024-03-25T04:56:55;98653.16;;;2.61;100.00
19520;BME280;9904;52.246;20.898;2024-03-25T04:59:21;98659.06;;;2.75;100.00
19520;BME280;9904;52.246;20.898;2024-03-25T05:01:47;98653.84;;;2.83;100.00
19520;BME280;9904;52.246;20.898;2024-03-25T05:04:12;98652.72;;;2.76;100.00
19520;BME280;9904;52.246;20.898;2024-03-25T05:06:38;98654.25;;;2.88;100.00
19520;BME280;9904;52.246;20.898;2024-03-25T05:09:04;98654.13;;;2.80;100.00
19520;BME280;9904;52.246;20.898;2024-03-25T05:11:32;98658.94;;;2.86;99.90
19520;BME280;9904;52.246;20.898;2024-03-25T05:13:58;98657.09;;;2.87;99.89
19520;BME280;9904;52.246;20.898;2024-03-25T05:16:23;98667.34;;;3.01;99.27
19520;BME280;9904;52.246;20.898;2024-03-25T05:18:49;98649.91;;;2.87;99.96
19520;BME280;9904;52.246;20.898;2024-03-25T05:21:15;98655.22;;;3.07;98.55
19520;BME280;9904;52.246;20.898;2024-03-25T05:23:40;98665.19;;;3.14;98.71
19520;BME280;9904;52.246;20.898;2024-03-25T05:26:06;98660.53;;;3.26;97.47
19520;BME280;9904;52.246;20.898;2024-03-25T05:28:31;98662.50;;;3.34;97.41
19520;BME280;9904;52.246;20.898;2024-03-25T05:31:05;98659.66;;;3.36;97.24
19520;BME280;9904;52.246;20.898;2024-03-25T05:33:31;98664.44;;;3.42;96.56
19520;BME280;9904;52.246;20.898;2024-03-25T05:35:58;98641.75;;;3.46;95.11
19520;BME280;9904;52.246;20.898;2024-03-25T05:38:24;98664.50;;;3.60;95.17
19520;BME280;9904;52.246;20.898;2024-03-25T05:40:49;98668.03;;;3.60;94.88
19520;BME280;9904;52.246;20.898;2024-03-25T05:43:15;98661.94;;;3.68;95.18
19520;BME280;9904;52.246;20.898;2024-03-25T05:45:41;98653.81;;;3.60;95.02
19520;BME280;9904;52.246;20.898;2024-03-25T05:48:06;98658.00;;;3.72;94.89
19520;BME280;9904;52.246;20.898;2024-03-25T05:50:32;98670.19;;;3.85;93.73
19520;BME280;9904;52.246;20.898;2024-03-25T05:52:58;98663.69;;;3.87;93.30
19520;BME280;9904;52.246;20.898;2024-03-25T05:55:23;98666.31;;;3.97;93.27
19520;BME280;9904;52.246;20.898;2024-03-25T05:57:49;98675.16;;;4.07;92.51
19520;BME280;9904;52.246;20.898;2024-03-25T06:00:15;98672.47;;;4.07;92.20
19520;BME280;9904;52.246;20.898;2024-03-25T06:02:40;98681.41;;;4.26;91.41
19520;BME280;9904;52.246;20.898;2024-03-25T06:05:06;98687.03;;;4.23;91.08
19520;BME280;9904;52.246;20.898;2024-03-25T06:07:33;98673.28;;;4.18;91.58
19520;BME280;9904;52.246;20.898;2024-03-25T06:09:59;98685.31;;;4.50;90.30
19520;BME280;9904;52.246;20.898;2024-03-25T06:12:24;98690.00;;;4.48;89.42
19520;BME280;9904;52.246;20.898;2024-03-25T06:14:50;98686.69;;;4.36;90.97
19520;BME280;9904;52.246;20.898;2024-03-25T06:17:15;98684.63;;;4.48;91.05
19520;BME280;9904;52.246;20.898;2024-03-25T06:19:41;98683.56;;;4.58;90.89
19520;BME280;9904;52.246;20.898;2024-03-25T06:22:07;98688.91;;;4.40;91.24
19520;BME280;9904;52.246;20.898;2024-03-25T06:24:32;98691.38;;;4.52;91.58
19520;BME280;9904;52.246;20.898;2024-03-25T06:26:58;98696.44;;;4.55;91.49
19520;BME280;9904;52.246;20.898;2024-03-25T06:29:24;98694.59;;;4.73;90.41
19520;BME280;9904;52.246;20.898;2024-03-25T06:31:49;98690.84;;;4.84;90.51
19520;BME280;9904;52.246;20.898;2024-03-25T06:34:34;98696.03;;;5.04;89.30
19520;BME280;9904;52.246;20.898;2024-03-25T06:36:59;98698.94;;;5.11;87.20
19520;BME280;9904;52.246;20.898;2024-03-25T06:39:25;98693.56;;;5.11;87.28
19520;BME280;9904;52.246;20.898;2024-03-25T06:41:51;98703.59;;;5.27;86.31
19520;BME280;9904;52.246;20.898;2024-03-25T06:44:16;98701.97;;;5.34;85.58
19520;BME280;9904;52.246;20.898;2024-03-25T06:46:42;98704.81;;;5.32;85.45
19520;BME280;9904;52.246;20.898;2024-03-25T06:49:07;98709.63;;;5.47;85.43
19520;BME280;9904;52.246;20.898;2024-03-25T06:51:34;98715.19;;;5.53;84.46
19520;BME280;9904;52.246;20.898;2024-03-25T06:53:59;98716.63;;;5.66;83.88
19520;BME280;9904;52.246;20.898;2024-03-25T06:56:25;98718.25;;;5.59;83.75
19520;BME280;9904;52.246;20.898;2024-03-25T06:58:51;98712.50;;;5.53;83.87
19520;BME280;9904;52.246;20.898;2024-03-25T07:01:17;98715.13;;;5.71;84.03
19520;BME280;9904;52.246;20.898;2024-03-25T07:03:44;98714.66;;;5.76;83.40
19520;BME280;9904;52.246;20.898;2024-03-25T07:06:09;98714.88;;;5.83;82.06
19520;BME280;9904;52.246;20.898;2024-03-25T07:08:35;98704.66;;;5.86;82.35
19520;BME280;9904;52.246;20.898;2024-03-25T07:11:01;98711.72;;;5.87;81.72
19520;BME280;9904;52.246;20.898;2024-03-25T07:13:27;98719.63;;;5.97;81.65
19520;BME280;9904;52.246;20.898;2024-03-25T07:15:52;98715.34;;;6.05;81.97
19520;BME280;9904;52.246;20.898;2024-03-25T07:18:18;98722.41;;;6.57;80.30
19520;BME280;9904;52.246;20.898;2024-03-25T07:20:44;98715.22;;;6.74;78.62
19520;BME280;9904;52.246;20.898;2024-03-25T07:23:10;98716.31;;;8.03;75.94
19520;BME280;9904;52.246;20.898;2024-03-25T07:25:36;98726.28;;;10.12;66.23
19520;BME280;9904;52.246;20.898;2024-03-25T07:28:02;98732.94;;;11.63;60.57
19520;BME280;9904;52.246;20.898;2024-03-25T07:30:28;98726.25;;;13.59;52.40
19520;BME280;9904;52.246;20.898;2024-03-25T07:32:55;98728.13;;;14.71;47.72
19520;BME280;9904;52.246;20.898;2024-03-25T07:35:20;98735.34;;;16.24;44.36
19520;BME280;9904;52.246;20.898;2024-03-25T07:37:46;98740.16;;;14.89;45.73
19520;BME280;9904;52.246;20.898;2024-03-25T07:40:12;98732.47;;;16.56;43.21
19520;BME280;9904;52.246;20.898;2024-03-25T07:42:38;98730.22;;;16.53;41.48
19520;BME280;9904;52.246;20.898;2024-03-25T07:45:05;98731.06;;;16.35;43.29
19520;BME280;9904;52.246;20.898;2024-03-25T07:47:32;98726.84;;;14.74;46.66
19520;BME280;9904;52.246;20.898;2024-03-25T07:49:58;98741.28;;;13.75;49.87
19520;BME280;9904;52.246;20.898;2024-03-25T07:52:27;98735.69;;;15.65;44.24
19520;BME280;9904;52.246;20.898;2024-03-25T07:54:53;98741.97;;;15.66;43.12
19520;BME280;9904;52.246;20.898;2024-03-25T07:57:19;98745.81;;;13.14;49.68
19520;BME280;9904;52.246;20.898;2024-03-25T07:59:47;98731.84;;;14.77;45.77
19520;BME280;9904;52.246;20.898;2024-03-25T08:02:13;98743.44;;;14.52;47.14
19520;BME280;9904;52.246;20.898;2024-03-25T08:04:39;98739.41;;;13.76;48.31
19520;BME280;9904;52.246;20.898;2024-03-25T08:07:04;98732.09;;;13.56;49.42
19520;BME280;9904;52.246;20.898;2024-03-25T08:09:30;98731.19;;;11.55;55.17
19520;BME280;9904;52.246;20.898;2024-03-25T08:11:56;98735.03;;;12.24;53.21
19520;BME280;9904;52.246;20.898;2024-03-25T08:14:22;98743.16;;;11.89;53.80
19520;BME280;9904;52.246;20.898;2024-03-25T08:16:48;98744.50;;;12.90;51.40
19520;BME280;9904;52.246;20.898;2024-03-25T08:19:15;98747.59;;;13.62;48.70
19520;BME280;9904;52.246;20.898;2024-03-25T08:21:40;98742.94;;;14.82;46.21
19520;BME280;9904;52.246;20.898;2024-03-25T08:24:06;98738.66;;;15.89;43.03
19520;BME280;9904;52.246;20.898;2024-03-25T08:26:32;98749.13;;;17.88;39.06
19520;BME280;9904;52.246;20.898;2024-03-25T08:28:58;98750.09;;;18.94;36.78
19520;BME280;9904;52.246;20.898;2024-03-25T08:31:24;98742.16;;;17.50;39.25
19520;BME280;9904;52.246;20.898;2024-03-25T08:33:50;98744.06;;;17.50;38.94
19520;BME280;9904;52.246;20.898;2024-03-25T08:36:16;98751.72;;;15.80;41.71
19520;BME280;9904;52.246;20.898;2024-03-25T08:38:41;98745.13;;;16.13;41.29
19520;BME280;9904;52.246;20.898;2024-03-25T08:41:07;98749.38;;;15.59;42.26
19520;BME280;9904;52.246;20.898;2024-03-25T08:43:33;98745.22;;;14.20;44.81
19520;BME280;9904;52.246;20.898;2024-03-25T08:45:58;98752.53;;;14.13;45.43
19520;BME280;9904;52.246;20.898;2024-03-25T08:48:24;98749.41;;;13.35;47.22
19520;BME280;9904;52.246;20.898;2024-03-25T08:50:50;98757.31;;;13.10;49.23
19520;BME280;9904;52.246;20.898;2024-03-25T08:53:15;98747.69;;;12.45;51.06
19520;BME280;9904;52.246;20.898;2024-03-25T08:55:50;98751.38;;;12.31;51.13
19520;BME280;9904;52.246;20.898;2024-03-25T08:58:16;98749.69;;;12.36;51.60
19520;BME280;9904;52.246;20.898;2024-03-25T09:00:42;98752.63;;;12.00;51.44
19520;BME280;9904;52.246;20.898;2024-03-25T09:03:08;98759.03;;;12.20;51.60
19520;BME280;9904;52.246;20.898;2024-03-25T09:05:35;98749.00;;;12.21;52.08
19520;BME280;9904;52.246;20.898;2024-03-25T09:08:02;98763.56;;;13.10;49.94
19520;BME280;9904;52.246;20.898;2024-03-25T09:10:28;98749.69;;;12.78;51.05
19520;BME280;9904;52.246;20.898;2024-03-25T09:13:13;98756.56;;;12.74;49.90
19520;BME280;9904;52.246;20.898;2024-03-25T09:15:38;98762.72;;;12.48;50.97
19520;BME280;9904;52.246;20.898;2024-03-25T09:18:04;98761.47;;;11.58;53.78
19520;BME280;9904;52.246;20.898;2024-03-25T09:20:30;98749.50;;;11.53;54.03
19520;BME280;9904;52.246;20.898;2024-03-25T09:22:55;98753.84;;;11.97;52.85
19520;BME280;9904;52.246;20.898;2024-03-25T09:25:21;98759.97;;;11.56;52.83
19520;BME280;9904;52.246;20.898;2024-03-25T09:27:48;98770.25;;;11.17;54.69
19520;BME280;9904;52.246;20.898;2024-03-25T09:30:14;98758.72;;;9.97;58.31
19520;BME280;9904;52.246;20.898;2024-03-25T09:32:40;98764.34;;;9.72;60.25
19520;BME280;9904;52.246;20.898;2024-03-25T09:35:06;98753.38;;;9.89;60.75
19520;BME280;9904;52.246;20.898;2024-03-25T09:37:32;98762.53;;;10.33;58.97
19520;BME280;9904;52.246;20.898;2024-03-25T09:39:58;98758.72;;;10.57;58.78
19520;BME280;9904;52.246;20.898;2024-03-25T09:42:48;98760.41;;;10.43;59.37
19520;BME280;9904;52.246;20.898;2024-03-25T09:45:18;98758.31;;;9.85;61.24
19520;BME280;9904;52.246;20.898;2024-03-25T09:47:46;98756.59;;;9.31;61.62
19520;BME280;9904;52.246;20.898;2024-03-25T09:50:13;98763.56;;;9.25;62.54
19520;BME280;9904;52.246;20.898;2024-03-25T09:52:40;98770.81;;;9.01;63.41
19520;BME280;9904;52.246;20.898;2024-03-25T09:55:06;98769.97;;;9.01;62.93
19520;BME280;9904;52.246;20.898;2024-03-25T09:57:33;98770.69;;;9.41;62.23
19520;BME280;9904;52.246;20.898;2024-03-25T09:59:59;98763.91;;;9.45;62.49
19520;BME280;9904;52.246;20.898;2024-03-25T10:02:28;98757.84;;;9.66;62.14
19520;BME280;9904;52.246;20.898;2024-03-25T10:04:53;98766.09;;;9.65;63.47
19520;BME280;9904;52.246;20.898;2024-03-25T10:07:23;98765.78;;;9.98;62.54
19520;BME280;9904;52.246;20.898;2024-03-25T10:09:51;98764.94;;;9.97;61.78
19520;BME280;9904;52.246;20.898;2024-03-25T10:12:17;98763.72;;;9.70;62.13
19520;BME280;9904;52.246;20.898;2024-03-25T10:14:43;98755.16;;;9.43;64.30
19520;BME280;9904;52.246;20.898;2024-03-25T10:17:09;98765.44;;;9.25;63.77
19520;BME280;9904;52.246;20.898;2024-03-25T10:19:36;98764.31;;;9.57;62.30
19520;BME280;9904;52.246;20.898;2024-03-25T10:22:06;98767.44;;;9.84;60.85
19520;BME280;9904;52.246;20.898;2024-03-25T10:24:44;98774.25;;;9.80;60.49
19520;BME280;9904;52.246;20.898;2024-03-25T10:27:18;98773.38;;;9.64;63.01
19520;BME280;9904;52.246;20.898;2024-03-25T10:29:48;98764.28;;;9.42;61.62
19520;BME280;9904;52.246;20.898;2024-03-25T10:32:14;98779.94;;;9.85;59.29
19520;BME280;9904;52.246;20.898;2024-03-25T10:34:40;98779.69;;;10.10;57.07
19520;BME280;9904;52.246;20.898;2024-03-25T10:37:09;98778.94;;;10.16;57.35
19520;BME280;9904;52.246;20.898;2024-03-25T10:39:39;98771.47;;;10.03;59.54
19520;BME280;9904;52.246;20.898;2024-03-25T10:42:07;98775.94;;;9.81;59.88
19520;BME280;9904;52.246;20.898;2024-03-25T10:44:33;98775.56;;;9.46;60.86
19520;BME280;9904;52.246;20.898;2024-03-25T10:47:02;98779.00;;;9.16;62.19
19520;BME280;9904;52.246;20.898;2024-03-25T10:52:03;98778.13;;;8.93;63.19
19520;BME280;9904;52.246;20.898;2024-03-25T10:54:31;98776.44;;;9.15;63.09
19520;BME280;9904;52.246;20.898;2024-03-25T10:56:58;98779.34;;;9.13;63.06
19520;BME280;9904;52.246;20.898;2024-03-25T10:59:28;98776.50;;;9.07;64.32
19520;BME280;9904;52.246;20.898;2024-03-25T11:01:55;98771.72;;;9.17;64.76
19520;BME280;9904;52.246;20.898;2024-03-25T11:04:22;98777.22;;;9.47;62.33
19520;BME280;9904;52.246;20.898;2024-03-25T11:06:48;98770.38;;;9.59;60.03
19520;BME280;9904;52.246;20.898;2024-03-25T11:09:24;98768.25;;;9.31;58.58
19520;BME280;9904;52.246;20.898;2024-03-25T11:11:52;98768.34;;;9.15;60.82
19520;BME280;9904;52.246;20.898;2024-03-25T11:14:18;98761.88;;;9.01;61.87
19520;BME280;9904;52.246;20.898;2024-03-25T11:16:54;98770.56;;;8.88;63.86
19520;BME280;9904;52.246;20.898;2024-03-25T11:19:20;98767.28;;;9.01;62.34
19520;BME280;9904;52.246;20.898;2024-03-25T11:21:46;98764.63;;;9.16;61.60
19520;BME280;9904;52.246;20.898;2024-03-25T11:24:12;98767.28;;;9.01;61.87
19520;BME280;9904;52.246;20.898;2024-03-25T11:26:42;98765.44;;;9.25;61.32
19520;BME280;9904;52.246;20.898;2024-03-25T11:29:08;98767.38;;;9.54;61.25
19520;BME280;9904;52.246;20.898;2024-03-25T11:31:34;98768.41;;;9.53;61.64
19520;BME280;9904;52.246;20.898;2024-03-25T11:34:04;98772.25;;;10.12;61.06
19520;BME280;9904;52.246;20.898;2024-03-25T11:36:30;98772.66;;;10.39;58.17
19520;BME280;9904;52.246;20.898;2024-03-25T11:39:03;98769.19;;;10.45;59.29
19520;BME280;9904;52.246;20.898;2024-03-25T11:41:32;98768.78;;;10.63;53.86
19520;BME280;9904;52.246;20.898;2024-03-25T11:43:58;98760.56;;;10.71;52.81
19520;BME280;9904;52.246;20.898;2024-03-25T11:46:26;98765.78;;;10.73;52.27
19520;BME280;9904;52.246;20.898;2024-03-25T11:48:53;98768.72;;;10.41;53.18
19520;BME280;9904;52.246;20.898;2024-03-25T11:51:19;98765.44;;;10.61;53.42
19520;BME280;9904;52.246;20.898;2024-03-25T11:53:45;98770.66;;;10.48;53.62
19520;BME280;9904;52.246;20.898;2024-03-25T11:56:11;98762.50;;;10.77;53.62
19520;BME280;9904;52.246;20.898;2024-03-25T11:58:37;98763.75;;;10.97;54.00
19520;BME280;9904;52.246;20.898;2024-03-25T12:01:03;98761.41;;;10.72;55.14
19520;BME280;9904;52.246;20.898;2024-03-25T12:03:29;98766.47;;;10.00;55.58
19520;BME280;9904;52.246;20.898;2024-03-25T12:05:56;98766.16;;;10.25;56.36
19520;BME280;9904;52.246;20.898;2024-03-25T12:08:23;98755.09;;;10.20;57.68
19520;BME280;9904;52.246;20.898;2024-03-25T12:10:51;98756.25;;;9.72;61.09
19520;BME280;9904;52.246;20.898;2024-03-25T12:13:37;98764.34;;;9.72;60.39
19520;BME280;9904;52.246;20.898;2024-03-25T12:16:07;98756.97;;;9.51;61.20
19520;BME280;9904;52.246;20.898;2024-03-25T12:18:36;98755.69;;;9.39;62.71
19520;BME280;9904;52.246;20.898;2024-03-25T12:21:04;98752.31;;;9.36;62.17
19520;BME280;9904;52.246;20.898;2024-03-25T12:23:32;98759.38;;;9.23;61.23
19520;BME280;9904;52.246;20.898;2024-03-25T12:26:01;98764.44;;;8.94;61.74
19520;BME280;9904;52.246;20.898;2024-03-25T12:28:27;98763.91;;;9.22;61.44
19520;BME280;9904;52.246;20.898;2024-03-25T12:30:54;98778.09;;;9.47;60.19
19520;BME280;9904;52.246;20.898;2024-03-25T12:33:22;98768.94;;;9.72;59.25
19520;BME280;9904;52.246;20.898;2024-03-25T12:35:49;98776.84;;;9.73;61.70
19520;BME280;9904;52.246;20.898;2024-03-25T12:38:25;98780.41;;;9.74;65.40
19520;BME280;9904;52.246;20.898;2024-03-25T12:40:52;98777.72;;;9.50;66.66
19520;BME280;9904;52.246;20.898;2024-03-25T12:43:18;98781.41;;;9.03;69.52
19520;BME280;9904;52.246;20.898;2024-03-25T12:45:44;98790.13;;;9.13;70.23
19520;BME280;9904;52.246;20.898;2024-03-25T12:48:10;98782.09;;;9.05;71.32
19520;BME280;9904;52.246;20.898;2024-03-25T12:50:36;98783.91;;;9.13;70.07
19520;BME280;9904;52.246;20.898;2024-03-25T12:53:02;98787.94;;;8.85;71.04
19520;BME280;9904;52.246;20.898;2024-03-25T12:55:31;98789.31;;;8.81;70.71
19520;BME280;9904;52.246;20.898;2024-03-25T12:57:56;98794.19;;;8.86;72.20
19520;BME280;9904;52.246;20.898;2024-03-25T13:00:22;98788.19;;;8.76;71.78
19520;BME280;9904;52.246;20.898;2024-03-25T13:02:48;98788.19;;;8.76;72.37
19520;BME280;9904;52.246;20.898;2024-03-25T13:05:14;98785.09;;;8.79;70.98
19520;BME280;9904;52.246;20.898;2024-03-25T13:07:40;98784.81;;;8.74;69.93